Huntly, United Kingdom
Current Conditions -  °F | °C
As of 1:50 PM on Tuesday 27 Jan 2015 (Local Time) from EGQS Reporting Station
Broken Clouds Broken Clouds  
Wind Chill: 41°   Ceiling: 10000
Heat Index: 48°   Visibility: 6mi
Dew Point: 39°   Wind: 20mph
Humidity: 71%   Direction: 250°WSW
Pressure: 29.91"   Gusts: NA
Location:  57.45°N, 2.79°W
Report Text: EGQS 271350Z 25017KT 9999 FEW020 BKN100 BKN220 09/04 Q1013 BLU NOSIG
Loading
Personal Weather Stations






























Interactive Weather Map New forecast layout! Learn more

10-Day Weather Forecast

Advertisements
Track Severe Weather on mobile